createdAt,value
2022-10-07T00:01:10.750Z,9.00
2022-10-07T00:06:12.144Z,8.60
2022-10-07T00:08:42.333Z,8.50
2022-10-07T00:11:13.162Z,8.90
2022-10-07T00:13:43.459Z,8.70
2022-10-07T00:16:13.840Z,8.10
2022-10-07T00:21:12.992Z,8.90
2022-10-07T00:23:42.409Z,8.90
2022-10-07T00:26:12.804Z,8.40
2022-10-07T00:31:13.274Z,8.50
2022-10-07T00:33:42.114Z,9.10
2022-10-07T00:36:15.794Z,8.90
2022-10-07T00:38:44.531Z,6.90
2022-10-07T00:41:19.109Z,9.20
2022-10-07T00:43:47.696Z,8.90
2022-10-07T00:46:26.144Z,9.00
2022-10-07T00:48:55.293Z,9.10
2022-10-07T00:51:23.721Z,8.30
2022-10-07T00:53:55.051Z,9.20
2022-10-07T00:56:25.053Z,8.70
2022-10-07T00:58:53.378Z,8.60
2022-10-07T01:01:25.218Z,8.90
2022-10-07T01:03:53.901Z,8.60
2022-10-07T01:08:53.903Z,8.40
2022-10-07T01:11:37.883Z,9.20
2022-10-07T01:14:11.918Z,9.20
2022-10-07T01:16:52.231Z,9.20
2022-10-07T01:19:43.232Z,8.50
2022-10-07T01:22:22.874Z,8.30
2022-10-07T01:24:59.952Z,8.70
2022-10-07T01:27:30.711Z,8.80
2022-10-07T01:30:03.427Z,9.00
2022-10-07T01:32:36.974Z,8.80
2022-10-07T01:35:09.747Z,8.50
2022-10-07T01:37:42.230Z,8.70
2022-10-07T01:40:14.834Z,9.10
2022-10-07T01:42:46.882Z,8.70
2022-10-07T01:45:21.367Z,9.00
2022-10-07T01:50:21.727Z,9.10
2022-10-07T01:53:02.510Z,8.30
2022-10-07T01:55:46.938Z,8.30
2022-10-07T01:58:30.116Z,8.20
2022-10-07T02:01:06.268Z,8.80
2022-10-07T02:03:50.407Z,8.40
2022-10-07T02:06:29.845Z,8.40
2022-10-07T02:09:03.327Z,8.70
2022-10-07T02:11:34.126Z,8.60
2022-10-07T02:14:10.357Z,8.50
2022-10-07T02:16:42.633Z,8.20
2022-10-07T02:19:15.544Z,8.30
2022-10-07T02:21:46.104Z,8.20
2022-10-07T02:24:17.188Z,8.90
2022-10-07T02:26:47.891Z,7.40
2022-10-07T02:29:20.632Z,8.30
2022-10-07T02:31:49.751Z,8.30
2022-10-07T02:34:20.257Z,8.90
2022-10-07T02:36:54.720Z,8.60
2022-10-07T02:44:29.191Z,8.50
2022-10-07T02:47:04.151Z,8.90
2022-10-07T02:49:34.932Z,8.10
2022-10-07T02:52:06.630Z,8.60
2022-10-07T02:54:41.391Z,8.40
2022-10-07T02:57:10.930Z,8.30
2022-10-07T02:59:41.523Z,7.90
2022-10-07T03:02:15.800Z,8.00
2022-10-07T03:09:42.775Z,8.60
2022-10-07T03:12:11.886Z,8.20
2022-10-07T03:14:41.585Z,8.00
2022-10-07T03:19:38.215Z,8.50
2022-10-07T03:22:06.388Z,8.20
2022-10-07T03:32:02.748Z,8.00
2022-10-07T03:34:31.715Z,8.10
2022-10-07T03:36:59.835Z,7.50
2022-10-07T03:41:57.135Z,7.90
2022-10-07T03:49:24.149Z,8.10
2022-10-07T03:54:21.204Z,7.60
2022-10-07T04:01:46.387Z,7.70
2022-10-07T04:06:44.545Z,7.90
2022-10-07T04:09:14.371Z,8.20
2022-10-07T04:19:08.624Z,8.00
2022-10-07T04:21:36.793Z,8.00
2022-10-07T04:24:06.481Z,7.50
2022-10-07T04:38:56.700Z,7.60
2022-10-07T04:41:26.108Z,7.50
2022-10-07T04:56:28.446Z,7.80
2022-10-07T05:06:22.194Z,7.50
2022-10-07T05:13:52.453Z,7.50
2022-10-07T05:31:16.232Z,7.30
2022-10-07T05:36:14.270Z,7.90
2022-10-07T05:41:13.142Z,7.40
2022-10-07T05:46:15.978Z,7.60
2022-10-07T05:48:48.893Z,7.30
2022-10-07T06:01:18.465Z,7.40
2022-10-07T06:03:51.505Z,7.50
2022-10-07T06:08:48.591Z,8.10
2022-10-07T06:16:33.584Z,7.70
2022-10-07T06:33:55.643Z,8.20
2022-10-07T06:36:24.305Z,8.30
2022-10-07T06:46:20.945Z,8.20
2022-10-07T06:51:21.626Z,9.10
2022-10-07T07:08:46.055Z,8.70
2022-10-07T07:14:02.018Z,9.30
2022-10-07T07:19:01.845Z,6.70
2022-10-07T07:24:01.550Z,10.00
2022-10-07T07:29:00.248Z,9.70
2022-10-07T07:31:29.455Z,9.70
2022-10-07T07:36:30.336Z,10.30
2022-10-07T07:39:01.698Z,10.30
2022-10-07T07:41:33.075Z,10.00
2022-10-07T07:44:03.626Z,10.70
2022-10-07T07:46:36.315Z,10.40
2022-10-07T07:51:34.584Z,9.80
2022-10-07T07:54:04.857Z,10.80
2022-10-07T08:06:31.378Z,10.90
2022-10-07T08:11:30.144Z,11.60
2022-10-07T08:16:29.360Z,11.60
2022-10-07T08:18:59.082Z,11.90
2022-10-07T08:21:30.223Z,11.80
2022-10-07T08:23:59.566Z,12.20
2022-10-07T08:26:31.821Z,12.00
2022-10-07T08:31:30.532Z,12.20
2022-10-07T08:33:59.967Z,13.00
2022-10-07T08:36:30.082Z,12.70
2022-10-07T08:41:43.286Z,13.20
2022-10-07T08:44:21.576Z,13.10
2022-10-07T08:46:58.831Z,13.00
2022-10-07T08:49:36.094Z,13.40
2022-10-07T08:52:10.617Z,11.30
2022-10-07T08:57:14.915Z,14.00
2022-10-07T08:59:49.452Z,14.00
2022-10-07T09:02:26.582Z,13.90
2022-10-07T09:05:06.465Z,14.20
2022-10-07T09:07:38.891Z,14.20
2022-10-07T09:10:25.611Z,14.30
2022-10-07T09:12:58.799Z,15.60
2022-10-07T09:15:36.060Z,16.90
2022-10-07T09:18:07.383Z,18.30
2022-10-07T09:20:42.234Z,19.20
2022-10-07T09:23:15.421Z,20.10
2022-10-07T09:25:44.566Z,21.30
2022-10-07T09:28:17.667Z,18.70
2022-10-07T09:30:45.891Z,19.80
2022-10-07T09:33:17.136Z,19.70
2022-10-07T09:35:57.410Z,19.80
2022-10-07T09:38:35.928Z,19.70
2022-10-07T09:41:19.700Z,19.70
2022-10-07T09:43:59.706Z,18.90
2022-10-07T09:46:43.953Z,19.10
2022-10-07T09:49:31.713Z,18.90
2022-10-07T09:52:01.749Z,17.90
2022-10-07T09:54:31.394Z,18.60
2022-10-07T09:57:01.109Z,18.10
2022-10-07T09:59:32.117Z,17.50
2022-10-07T10:02:02.977Z,18.10
2022-10-07T10:04:33.696Z,17.90
2022-10-07T10:07:05.612Z,18.10
2022-10-07T10:09:35.150Z,17.90
2022-10-07T10:12:10.072Z,17.70
2022-10-07T10:14:46.773Z,18.10
2022-10-07T10:17:31.358Z,17.50
2022-10-07T10:20:27.758Z,17.40
2022-10-07T10:22:56.625Z,17.20
2022-10-07T10:25:52.918Z,17.60
2022-10-07T10:28:34.040Z,17.90
2022-10-07T10:31:10.885Z,17.80
2022-10-07T10:33:47.185Z,18.40
2022-10-07T10:36:20.565Z,18.30
2022-10-07T10:39:01.983Z,18.70
2022-10-07T10:41:37.237Z,18.70
2022-10-07T10:44:21.145Z,18.10
2022-10-07T10:47:00.172Z,18.90
2022-10-07T10:49:34.037Z,18.00
2022-10-07T10:52:27.294Z,18.20
2022-10-07T10:55:18.002Z,18.20
2022-10-07T10:58:00.057Z,18.60
2022-10-07T11:00:35.589Z,18.20
2022-10-07T11:03:27.747Z,18.10
2022-10-07T11:05:57.603Z,18.10
2022-10-07T11:08:36.987Z,18.20
2022-10-07T11:11:09.029Z,19.30
2022-10-07T11:13:43.600Z,18.60
2022-10-07T11:16:17.491Z,18.30
2022-10-07T11:18:53.747Z,18.90
2022-10-07T11:21:26.365Z,18.10
2022-10-07T11:24:02.087Z,17.60
2022-10-07T11:26:37.588Z,18.60
2022-10-07T11:29:24.498Z,18.60
2022-10-07T11:32:02.237Z,18.90
2022-10-07T11:34:40.544Z,18.00
2022-10-07T11:37:16.863Z,18.90
2022-10-07T11:39:45.122Z,18.20
2022-10-07T11:42:17.615Z,18.50
2022-10-07T11:44:55.259Z,18.30
2022-10-07T11:47:27.877Z,18.30
2022-10-07T11:50:04.782Z,18.20
2022-10-07T11:52:38.369Z,18.30
2022-10-07T11:55:10.219Z,19.20
2022-10-07T11:57:43.775Z,18.80
2022-10-07T12:00:26.304Z,18.70
2022-10-07T12:02:55.635Z,18.90
2022-10-07T12:06:06.254Z,18.80
2022-10-07T12:08:37.449Z,18.50
2022-10-07T12:11:41.354Z,18.40
2022-10-07T12:14:35.867Z,18.10
2022-10-07T12:17:24.667Z,18.30
2022-10-07T12:20:30.481Z,18.60
2022-10-07T12:23:38.474Z,18.20
2022-10-07T12:26:28.659Z,18.80
2022-10-07T12:28:58.723Z,18.20
2022-10-07T12:31:48.712Z,18.10
2022-10-07T12:34:28.007Z,19.20
2022-10-07T12:37:34.930Z,18.50
2022-10-07T12:40:16.141Z,19.30
2022-10-07T12:42:51.695Z,19.20
2022-10-07T12:45:22.854Z,18.30
2022-10-07T12:47:54.535Z,18.30
2022-10-07T12:50:25.504Z,19.00
2022-10-07T12:52:57.861Z,19.00
2022-10-07T12:55:33.273Z,18.50
2022-10-07T12:58:15.843Z,18.60
2022-10-07T13:00:55.155Z,19.50
2022-10-07T13:03:57.165Z,19.00
2022-10-07T13:06:57.445Z,18.70
2022-10-07T13:09:47.656Z,18.90
2022-10-07T13:12:48.410Z,18.80
2022-10-07T13:15:33.679Z,18.90
2022-10-07T13:18:10.793Z,18.00
2022-10-07T13:20:48.709Z,18.30
2022-10-07T13:23:23.341Z,18.70
2022-10-07T13:25:57.179Z,19.10
2022-10-07T13:28:37.047Z,19.10
2022-10-07T13:31:21.301Z,19.70
2022-10-07T13:36:21.409Z,19.40
2022-10-07T13:38:50.813Z,19.10
2022-10-07T13:41:29.914Z,18.70
2022-10-07T13:44:01.508Z,19.30
2022-10-07T13:46:32.349Z,19.30
2022-10-07T13:49:01.393Z,19.60
2022-10-07T13:51:34.057Z,19.40
2022-10-07T13:54:06.174Z,19.40
2022-10-07T13:56:41.618Z,19.30
2022-10-07T13:59:18.568Z,19.30
2022-10-07T14:01:48.970Z,19.50
2022-10-07T14:04:25.185Z,18.80
2022-10-07T14:07:02.240Z,19.20
2022-10-07T14:09:57.166Z,18.80
2022-10-07T14:12:31.497Z,19.20
2022-10-07T14:15:05.445Z,18.80
2022-10-07T14:17:41.568Z,19.10
2022-10-07T14:20:21.522Z,19.50
2022-10-07T14:22:53.451Z,18.90
2022-10-07T14:25:23.716Z,19.20
2022-10-07T14:28:17.703Z,18.80
2022-10-07T14:31:06.159Z,19.00
2022-10-07T14:34:17.498Z,19.20
2022-10-07T14:37:06.198Z,19.40
2022-10-07T14:39:37.309Z,19.20
2022-10-07T14:42:06.867Z,18.70
2022-10-07T14:47:07.054Z,18.10
2022-10-07T14:52:06.212Z,18.60
2022-10-07T14:54:35.899Z,18.50
2022-10-07T14:57:04.065Z,18.70
2022-10-07T14:59:32.119Z,19.20
2022-10-07T15:04:30.308Z,19.00
2022-10-07T15:06:58.678Z,18.30
2022-10-07T15:09:26.836Z,18.60
2022-10-07T15:11:54.935Z,18.90
2022-10-07T15:16:51.607Z,18.30
2022-10-07T15:19:20.246Z,18.90
2022-10-07T15:21:49.891Z,18.80
2022-10-07T15:26:48.001Z,18.60
2022-10-07T15:29:17.898Z,18.50
2022-10-07T15:36:43.624Z,18.30
2022-10-07T15:39:13.234Z,17.70
2022-10-07T15:41:43.174Z,17.50
2022-10-07T15:44:16.287Z,18.10
2022-10-07T15:51:42.761Z,17.60
2022-10-07T15:54:13.400Z,17.60
2022-10-07T15:59:11.131Z,17.20
2022-10-07T16:04:12.679Z,17.50
2022-10-07T16:06:41.130Z,17.40
2022-10-07T16:09:09.409Z,17.20
2022-10-07T16:11:38.979Z,17.00
2022-10-07T16:14:07.031Z,16.40
2022-10-07T16:19:04.772Z,16.30
2022-10-07T16:21:34.991Z,17.30
2022-10-07T16:24:05.225Z,16.50
2022-10-07T16:26:35.822Z,16.40
2022-10-07T16:29:24.247Z,16.80
2022-10-07T16:31:58.376Z,16.00
2022-10-07T16:34:28.239Z,15.40
2022-10-07T16:36:57.454Z,15.60
2022-10-07T16:39:25.879Z,15.50
2022-10-07T16:44:24.886Z,15.10
2022-10-07T16:46:56.681Z,15.00
2022-10-07T16:49:27.622Z,14.80
2022-10-07T16:51:56.483Z,14.30
2022-10-07T16:54:25.323Z,14.70
2022-10-07T16:56:54.216Z,14.30
2022-10-07T16:59:25.119Z,13.80
2022-10-07T17:01:55.387Z,14.80
2022-10-07T17:04:24.761Z,14.00
2022-10-07T17:06:53.441Z,14.00
2022-10-07T17:09:24.901Z,13.70
2022-10-07T17:11:53.540Z,14.10
2022-10-07T17:14:23.053Z,15.40
2022-10-07T17:16:54.726Z,13.40
2022-10-07T17:19:24.501Z,13.50
2022-10-07T17:21:53.724Z,12.80
2022-10-07T17:24:23.809Z,11.60
2022-10-07T17:26:53.707Z,13.20
2022-10-07T17:29:23.358Z,13.10
2022-10-07T17:31:53.075Z,13.30
2022-10-07T17:34:22.198Z,13.10
2022-10-07T17:36:51.284Z,12.90
2022-10-07T17:39:20.054Z,12.80
2022-10-07T17:41:48.689Z,12.70
2022-10-07T17:49:15.727Z,12.40
2022-10-07T17:51:44.406Z,12.20
2022-10-07T17:54:14.498Z,12.40
2022-10-07T17:59:16.736Z,11.80
2022-10-07T18:01:45.557Z,12.20
2022-10-07T18:04:19.989Z,12.10
2022-10-07T18:12:07.875Z,12.20
2022-10-07T18:17:23.062Z,12.20
2022-10-07T18:19:52.648Z,12.10
2022-10-07T18:22:21.171Z,11.10
2022-10-07T18:37:13.680Z,10.70
2022-10-07T18:39:42.132Z,11.70
2022-10-07T18:54:35.123Z,10.90
2022-10-07T19:02:01.111Z,10.80
2022-10-07T19:04:31.076Z,10.30
2022-10-07T19:11:58.094Z,10.60
2022-10-07T19:19:24.776Z,10.90
2022-10-07T19:21:55.473Z,11.20
2022-10-07T19:27:15.385Z,10.50
2022-10-07T19:32:14.446Z,11.10
2022-10-07T19:34:44.616Z,10.30
2022-10-07T19:44:41.113Z,9.90
2022-10-07T19:49:38.506Z,10.30
2022-10-07T19:52:06.673Z,10.90
2022-10-07T19:54:36.200Z,10.10
2022-10-07T20:02:03.276Z,10.10
2022-10-07T20:04:31.446Z,10.20
2022-10-07T20:06:59.537Z,9.80
2022-10-07T20:09:28.143Z,10.00
2022-10-07T20:11:56.416Z,10.00
2022-10-07T20:16:52.824Z,9.90
2022-10-07T20:19:22.290Z,10.10
2022-10-07T20:34:16.565Z,9.80
2022-10-07T20:36:45.989Z,9.80
2022-10-07T20:39:35.812Z,10.20
2022-10-07T20:42:22.508Z,9.80
2022-10-07T20:47:20.262Z,9.70
2022-10-07T20:52:22.402Z,9.70
2022-10-07T20:57:21.740Z,9.90
2022-10-07T20:59:50.456Z,9.20
2022-10-07T21:02:21.123Z,10.70
2022-10-07T21:07:20.367Z,9.30
2022-10-07T21:12:18.782Z,9.20
2022-10-07T21:17:17.785Z,9.20
2022-10-07T21:24:43.997Z,9.40
2022-10-07T21:32:11.979Z,10.20
2022-10-07T21:42:07.846Z,10.10
2022-10-07T21:54:30.341Z,10.10
2022-10-07T21:59:28.328Z,10.20
2022-10-07T22:04:25.054Z,10.30
2022-10-07T22:14:39.585Z,10.20
2022-10-07T22:17:07.586Z,10.20
2022-10-07T22:27:03.794Z,9.90
2022-10-07T22:29:31.856Z,10.50
2022-10-07T22:32:01.422Z,10.20
2022-10-07T22:47:10.961Z,9.50
2022-10-07T23:04:33.135Z,10.70
2022-10-07T23:09:29.673Z,11.00
2022-10-07T23:14:26.575Z,11.70
2022-10-07T23:21:52.737Z,11.00
2022-10-07T23:34:15.030Z,10.80
2022-10-07T23:39:13.457Z,10.70
2022-10-07T23:51:36.661Z,10.50
2022-10-07T23:54:05.942Z,10.90
2022-10-07T23:56:35.440Z,11.00
2022-10-07T23:59:03.950Z,11.00
